createdAt,value
2018-05-25T00:00:01.084Z,0
2018-05-25T00:01:01.796Z,0
2018-05-25T00:02:02.518Z,0
2018-05-25T00:03:03.236Z,0
2018-05-25T00:04:03.947Z,0
2018-05-25T00:05:04.671Z,0
2018-05-25T00:06:05.398Z,0
2018-05-25T00:07:06.112Z,0
2018-05-25T00:08:06.830Z,0
2018-05-25T00:09:07.552Z,0
2018-05-25T00:10:08.264Z,0
2018-05-25T00:11:08.989Z,0
2018-05-25T00:12:09.703Z,0
2018-05-25T00:13:10.417Z,0
2018-05-25T00:14:11.133Z,0
2018-05-25T00:15:11.848Z,0
2018-05-25T00:16:12.561Z,0
2018-05-25T00:17:13.285Z,0
2018-05-25T00:18:13.999Z,0
2018-05-25T00:19:14.711Z,0
2018-05-25T00:20:15.426Z,0
2018-05-25T00:21:16.153Z,0
2018-05-25T00:22:16.867Z,0
2018-05-25T00:23:17.581Z,0
2018-05-25T00:24:18.295Z,0
2018-05-25T00:25:19.011Z,0
2018-05-25T00:26:19.735Z,0
2018-05-25T00:27:20.449Z,0
2018-05-25T00:28:21.174Z,0
2018-05-25T00:29:21.887Z,0
2018-05-25T00:30:22.600Z,0
2018-05-25T00:31:23.312Z,0
2018-05-25T00:32:24.037Z,0
2018-05-25T00:33:24.750Z,0
2018-05-25T00:34:25.475Z,0
2018-05-25T00:35:26.189Z,0
2018-05-25T00:36:26.913Z,0
2018-05-25T00:37:27.627Z,0
2018-05-25T00:38:28.339Z,0
2018-05-25T00:39:29.056Z,0
2018-05-25T00:40:29.767Z,0
2018-05-25T00:41:30.482Z,0
2018-05-25T00:42:31.196Z,0
2018-05-25T00:43:31.908Z,0
2018-05-25T00:44:32.620Z,0
2018-05-25T00:45:33.333Z,0
2018-05-25T00:46:34.046Z,0
2018-05-25T00:47:34.763Z,0
2018-05-25T00:48:35.473Z,0
2018-05-25T00:49:36.187Z,0
2018-05-25T00:50:36.901Z,0
2018-05-25T00:51:37.625Z,0
2018-05-25T00:52:38.339Z,0
2018-05-25T00:53:39.067Z,0
2018-05-25T00:54:39.764Z,0
2018-05-25T00:55:40.477Z,0
2018-05-25T00:56:41.200Z,0
2018-05-25T00:57:41.916Z,0
2018-05-25T00:58:42.629Z,0
2018-05-25T00:59:43.343Z,0
2018-05-25T01:00:44.057Z,0
2018-05-25T01:01:44.772Z,0
2018-05-25T01:02:45.497Z,0
2018-05-25T01:03:46.211Z,0
2018-05-25T01:04:46.925Z,0
2018-05-25T01:05:47.638Z,0
2018-05-25T01:06:48.353Z,0
2018-05-25T01:07:49.066Z,0
2018-05-25T01:08:49.781Z,0
2018-05-25T01:09:50.493Z,0
2018-05-25T01:10:51.207Z,0
2018-05-25T01:11:51.919Z,0
2018-05-25T01:12:52.632Z,0
2018-05-25T01:13:53.358Z,0
2018-05-25T01:14:54.075Z,0
2018-05-25T01:15:54.798Z,0
2018-05-25T01:16:55.511Z,0
2018-05-25T01:17:56.228Z,0
2018-05-25T01:18:56.950Z,0
2018-05-25T01:19:57.664Z,0
2018-05-25T01:20:58.379Z,0
2018-05-25T01:21:59.092Z,0
2018-05-25T01:22:59.807Z,0
2018-05-25T01:24:00.518Z,0
2018-05-25T01:25:01.235Z,0
2018-05-25T01:26:01.956Z,0
2018-05-25T01:27:02.670Z,0
2018-05-25T01:28:03.400Z,0
2018-05-25T01:29:04.111Z,0
2018-05-25T01:30:04.827Z,0
2018-05-25T01:31:05.547Z,0
2018-05-25T01:32:06.262Z,0
2018-05-25T01:33:06.973Z,0
2018-05-25T01:34:07.686Z,0
2018-05-25T01:35:08.400Z,0
2018-05-25T01:36:09.123Z,0
2018-05-25T01:37:09.836Z,0
2018-05-25T01:38:10.551Z,0
2018-05-25T01:39:11.276Z,0
2018-05-25T01:40:11.990Z,0
2018-05-25T01:41:12.704Z,0
2018-05-25T01:42:13.418Z,0
2018-05-25T01:43:14.131Z,0
2018-05-25T01:44:14.846Z,0
2018-05-25T01:45:15.570Z,0
2018-05-25T01:46:16.283Z,0
2018-05-25T01:47:16.995Z,0
2018-05-25T01:48:17.710Z,0
2018-05-25T01:49:18.423Z,0
2018-05-25T01:50:19.149Z,0
2018-05-25T01:51:19.864Z,0
2018-05-25T01:52:20.589Z,0
2018-05-25T01:53:21.313Z,0
2018-05-25T01:54:22.028Z,0
2018-05-25T01:55:22.745Z,0
2018-05-25T01:56:23.456Z,0
2018-05-25T01:57:24.170Z,0
2018-05-25T01:58:24.883Z,0
2018-05-25T01:59:25.596Z,0
2018-05-25T02:00:26.310Z,0
2018-05-25T02:01:27.031Z,0
2018-05-25T02:02:27.738Z,0
2018-05-25T02:03:28.452Z,0
2018-05-25T02:04:29.166Z,0
2018-05-25T02:05:29.881Z,0
2018-05-25T02:06:30.593Z,0
2018-05-25T02:07:31.307Z,0
2018-05-25T02:08:32.020Z,0
2018-05-25T02:09:32.745Z,0
2018-05-25T02:10:33.458Z,0
2018-05-25T02:11:34.177Z,0
2018-05-25T02:12:34.896Z,0
2018-05-25T02:13:35.611Z,0
2018-05-25T02:14:36.325Z,0
2018-05-25T02:15:37.050Z,0
2018-05-25T02:16:37.763Z,0
2018-05-25T02:17:38.486Z,0
2018-05-25T02:18:39.210Z,0
2018-05-25T02:19:39.924Z,0
2018-05-25T02:20:40.653Z,0
2018-05-25T02:21:41.378Z,0
2018-05-25T02:22:42.090Z,0
2018-05-25T02:23:42.802Z,0
2018-05-25T02:24:43.526Z,0
2018-05-25T02:25:44.241Z,0
2018-05-25T02:26:44.956Z,0
2018-05-25T02:27:45.668Z,0
2018-05-25T02:28:46.392Z,0
2018-05-25T02:29:47.105Z,0
2018-05-25T02:30:47.820Z,0
2018-05-25T02:31:48.534Z,0
2018-05-25T02:32:49.258Z,0
2018-05-25T02:33:49.976Z,0
2018-05-25T02:34:50.698Z,0
2018-05-25T02:35:51.411Z,0
2018-05-25T02:36:52.124Z,0
2018-05-25T02:37:52.836Z,0
2018-05-25T02:38:53.549Z,0
2018-05-25T02:39:54.265Z,0
2018-05-25T02:40:54.988Z,0
2018-05-25T02:41:55.707Z,0
2018-05-25T02:42:56.415Z,0
2018-05-25T02:43:57.140Z,0
2018-05-25T02:44:57.866Z,0
2018-05-25T02:45:58.591Z,0
2018-05-25T02:46:59.303Z,0
2018-05-25T02:48:00.018Z,4
2018-05-25T02:49:00.730Z,0
2018-05-25T02:50:01.456Z,0
2018-05-25T02:51:02.168Z,4
2018-05-25T02:52:02.896Z,4
2018-05-25T02:53:03.620Z,0
2018-05-25T02:54:04.333Z,4
2018-05-25T02:55:05.049Z,4
2018-05-25T02:56:05.774Z,4
2018-05-25T02:57:06.490Z,8
2018-05-25T02:58:07.200Z,8
2018-05-25T02:59:07.913Z,8
2018-05-25T03:00:08.627Z,12
2018-05-25T03:01:09.340Z,12
2018-05-25T03:02:10.053Z,8
2018-05-25T03:03:10.784Z,12
2018-05-25T03:04:11.494Z,16
2018-05-25T03:05:12.224Z,16
2018-05-25T03:06:12.939Z,16
2018-05-25T03:07:13.653Z,20
2018-05-25T03:08:14.371Z,24
2018-05-25T03:09:15.085Z,28
2018-05-25T03:10:15.799Z,32
2018-05-25T03:11:16.514Z,36
2018-05-25T03:12:17.236Z,40
2018-05-25T03:13:17.951Z,44
2018-05-25T03:14:18.676Z,52
2018-05-25T03:15:19.391Z,56
2018-05-25T03:16:20.106Z,60
2018-05-25T03:17:20.818Z,64
2018-05-25T03:18:21.531Z,72
2018-05-25T03:19:22.247Z,76
2018-05-25T03:20:22.958Z,88
2018-05-25T03:21:23.672Z,96
2018-05-25T03:22:24.387Z,104
2018-05-25T03:23:25.115Z,112
2018-05-25T03:24:25.845Z,124
2018-05-25T03:25:26.556Z,132
2018-05-25T03:26:27.287Z,144
2018-05-25T03:27:27.997Z,160
2018-05-25T03:28:28.714Z,168
2018-05-25T03:29:29.428Z,188
2018-05-25T03:30:30.148Z,204
2018-05-25T03:31:30.874Z,220
2018-05-25T03:32:31.588Z,240
2018-05-25T03:33:32.302Z,260
2018-05-25T03:34:33.017Z,284
2018-05-25T03:35:33.735Z,304
2018-05-25T03:36:34.451Z,324
2018-05-25T03:37:35.169Z,340
2018-05-25T03:38:35.885Z,360
2018-05-25T03:39:36.648Z,380
2018-05-25T03:40:37.331Z,400
2018-05-25T03:41:38.049Z,416
2018-05-25T03:42:38.764Z,432
2018-05-25T03:43:39.480Z,448
2018-05-25T03:44:40.208Z,468
2018-05-25T03:45:40.924Z,488
2018-05-25T03:46:41.640Z,508
2018-05-25T03:47:42.358Z,536
2018-05-25T03:48:43.079Z,556
2018-05-25T03:49:43.804Z,580
2018-05-25T03:50:44.531Z,596
2018-05-25T03:51:45.247Z,600
2018-05-25T03:52:45.965Z,604
2018-05-25T03:53:46.681Z,608
2018-05-25T03:54:47.397Z,608
2018-05-25T03:55:48.117Z,608
2018-05-25T03:56:48.833Z,600
2018-05-25T03:57:49.560Z,588
2018-05-25T03:58:50.278Z,572
2018-05-25T03:59:51.005Z,552
2018-05-25T04:00:51.729Z,532
2018-05-25T04:01:52.453Z,520
2018-05-25T04:02:53.170Z,512
2018-05-25T04:03:53.886Z,508
2018-05-25T04:04:54.603Z,504
2018-05-25T04:05:55.320Z,492
2018-05-25T04:06:56.036Z,492
2018-05-25T04:07:56.752Z,500
2018-05-25T04:08:57.470Z,516
2018-05-25T04:09:58.200Z,528
2018-05-25T04:10:58.915Z,548
2018-05-25T04:11:59.633Z,568
2018-05-25T04:13:00.349Z,588
2018-05-25T04:14:01.066Z,596
2018-05-25T04:15:01.785Z,596
2018-05-25T04:16:02.502Z,580
2018-05-25T04:17:03.217Z,572
2018-05-25T04:18:03.946Z,564
2018-05-25T04:19:04.664Z,552
2018-05-25T04:20:05.381Z,540
2018-05-25T04:21:06.097Z,536
2018-05-25T04:22:06.813Z,540
2018-05-25T04:23:07.532Z,552
2018-05-25T04:24:08.249Z,564
2018-05-25T04:25:08.966Z,580
2018-05-25T04:26:09.683Z,592
2018-05-25T04:27:10.399Z,604
2018-05-25T04:28:11.115Z,620
2018-05-25T04:29:11.832Z,632
2018-05-25T04:30:12.556Z,640
2018-05-25T04:31:13.274Z,628
2018-05-25T04:32:13.990Z,624
2018-05-25T04:33:14.716Z,624
2018-05-25T04:34:15.446Z,644
2018-05-25T04:35:16.172Z,664
2018-05-25T04:36:16.890Z,688
2018-05-25T04:37:17.607Z,696
2018-05-25T04:38:18.322Z,708
2018-05-25T04:39:19.049Z,720
2018-05-25T04:40:19.766Z,736
2018-05-25T04:41:20.481Z,772
2018-05-25T04:42:21.211Z,812
2018-05-25T04:43:21.928Z,860
2018-05-25T04:44:22.656Z,900
2018-05-25T04:45:23.373Z,940
2018-05-25T04:46:24.104Z,968
2018-05-25T04:47:24.822Z,996
2018-05-25T04:48:25.540Z,1020
2018-05-25T04:49:26.257Z,1052
2018-05-25T04:50:26.972Z,1080
2018-05-25T04:51:27.692Z,1112
2018-05-25T04:52:28.464Z,1128
2018-05-25T04:53:29.133Z,1144
2018-05-25T04:54:29.845Z,1164
2018-05-25T04:55:30.564Z,1176
2018-05-25T04:56:31.283Z,1180
2018-05-25T04:57:32.015Z,1184
2018-05-25T04:58:32.730Z,1204
2018-05-25T04:59:33.455Z,1212
2018-05-25T05:00:34.171Z,1232
2018-05-25T05:01:34.886Z,1268
2018-05-25T05:02:35.617Z,1304
2018-05-25T05:03:36.333Z,1336
2018-05-25T05:04:37.067Z,1344
2018-05-25T05:05:37.779Z,1336
2018-05-25T05:06:38.500Z,1316
2018-05-25T05:07:39.217Z,1312
2018-05-25T05:08:39.935Z,1332
2018-05-25T05:09:40.655Z,1360
2018-05-25T05:10:41.375Z,1368
2018-05-25T05:11:42.091Z,1364
2018-05-25T05:12:42.813Z,1360
2018-05-25T05:13:43.539Z,1352
2018-05-25T05:14:44.263Z,1340
2018-05-25T05:15:44.973Z,1348
2018-05-25T05:16:45.705Z,1368
2018-05-25T05:17:46.421Z,1376
2018-05-25T05:18:47.139Z,1388
2018-05-25T05:19:47.858Z,1408
2018-05-25T05:20:48.579Z,1424
2018-05-25T05:21:49.296Z,1440
2018-05-25T05:22:50.031Z,1444
2018-05-25T05:23:50.757Z,1432
2018-05-25T05:24:51.487Z,1396
2018-05-25T05:25:52.205Z,1360
2018-05-25T05:26:52.934Z,1328
2018-05-25T05:27:53.652Z,1304
2018-05-25T05:28:54.370Z,1292
2018-05-25T05:29:55.090Z,1292
2018-05-25T05:30:55.808Z,1292
2018-05-25T05:31:56.525Z,1296
2018-05-25T05:32:57.246Z,1320
2018-05-25T05:33:57.965Z,1368
2018-05-25T05:34:58.695Z,1432
2018-05-25T05:35:59.414Z,1520
2018-05-25T05:37:00.131Z,1612
2018-05-25T05:38:00.850Z,1712
2018-05-25T05:39:01.570Z,1820
2018-05-25T05:40:02.290Z,1952
2018-05-25T05:41:03.012Z,2104
2018-05-25T05:42:03.728Z,2288
2018-05-25T05:43:04.446Z,2488
2018-05-25T05:44:05.163Z,2712
2018-05-25T05:45:05.881Z,2948
2018-05-25T05:46:06.601Z,3164
2018-05-25T05:47:07.330Z,3340
2018-05-25T05:48:08.065Z,3468
2018-05-25T05:49:08.781Z,3576
2018-05-25T05:50:09.501Z,3668
2018-05-25T05:51:10.221Z,3756
2018-05-25T05:52:10.940Z,3864
2018-05-25T05:53:11.660Z,3980
2018-05-25T05:54:12.381Z,4084
2018-05-25T05:55:13.103Z,4140
2018-05-25T05:56:13.820Z,4156
2018-05-25T05:57:14.551Z,4188
2018-05-25T05:58:15.272Z,4212
2018-05-25T05:59:15.991Z,4228
2018-05-25T06:00:16.713Z,4244
2018-05-25T06:01:17.444Z,4248
2018-05-25T06:02:18.165Z,4240
2018-05-25T06:03:18.885Z,4216
2018-05-25T06:04:19.656Z,4176
2018-05-25T06:05:20.329Z,4108
2018-05-25T06:06:21.061Z,4032
2018-05-25T06:07:21.788Z,3976
2018-05-25T06:08:22.504Z,3948
2018-05-25T06:09:23.225Z,3984
2018-05-25T06:10:23.958Z,4048
2018-05-25T06:11:24.677Z,4148
2018-05-25T06:12:25.416Z,4236
2018-05-25T06:13:26.121Z,4312
2018-05-25T06:14:26.842Z,4420
2018-05-25T06:15:27.565Z,4580
2018-05-25T06:16:28.285Z,4772
2018-05-25T06:17:29.007Z,5004
2018-05-25T06:18:29.731Z,5228
2018-05-25T06:19:30.460Z,5456
2018-05-25T06:20:31.196Z,5708
2018-05-25T06:21:31.924Z,5964
2018-05-25T06:22:32.651Z,6116
2018-05-25T06:23:33.380Z,6200
2018-05-25T06:24:34.099Z,6220
2018-05-25T06:25:34.833Z,6188
2018-05-25T06:26:35.552Z,6120
2018-05-25T06:27:36.275Z,6004
2018-05-25T06:28:37.008Z,5852
2018-05-25T06:29:37.729Z,5728
2018-05-25T06:30:38.448Z,5684
2018-05-25T06:31:39.169Z,5728
2018-05-25T06:32:39.903Z,5776
2018-05-25T06:33:40.622Z,5788
2018-05-25T06:34:41.390Z,5792
2018-05-25T06:35:42.065Z,5800
2018-05-25T06:36:42.784Z,5868
2018-05-25T06:37:43.506Z,5880
2018-05-25T06:38:44.227Z,5908
2018-05-25T06:39:44.950Z,5956
2018-05-25T06:40:45.677Z,6028
2018-05-25T06:41:46.395Z,6248
2018-05-25T06:42:47.127Z,6568
2018-05-25T06:43:47.848Z,6992
2018-05-25T06:44:48.572Z,7432
2018-05-25T06:45:49.308Z,7792
2018-05-25T06:46:50.026Z,8104
2018-05-25T06:47:50.753Z,8336
2018-05-25T06:48:51.485Z,8432
2018-05-25T06:49:52.223Z,8328
2018-05-25T06:50:52.948Z,8644
2018-05-25T06:51:53.670Z,8712
2018-05-25T06:52:54.393Z,9072
2018-05-25T06:53:55.118Z,9576
2018-05-25T06:54:55.849Z,10416
2018-05-25T06:55:56.571Z,11212
2018-05-25T06:56:57.295Z,11972
2018-05-25T06:57:58.044Z,12352
2018-05-25T06:58:58.744Z,12908
2018-05-25T06:59:59.468Z,12864
2018-05-25T07:01:00.193Z,11972
2018-05-25T07:02:00.915Z,11256
2018-05-25T07:03:01.639Z,10648
2018-05-25T07:04:02.375Z,10344
2018-05-25T07:05:03.087Z,10152
2018-05-25T07:06:03.812Z,9804
2018-05-25T07:07:04.531Z,9380
2018-05-25T07:08:05.252Z,9000
2018-05-25T07:09:05.976Z,8664
2018-05-25T07:10:06.700Z,8228
2018-05-25T07:11:07.424Z,7672
2018-05-25T07:12:08.159Z,7648
2018-05-25T07:13:08.896Z,7444
2018-05-25T07:14:09.630Z,7288
2018-05-25T07:15:10.351Z,7340
2018-05-25T07:16:11.073Z,7312
2018-05-25T07:17:11.797Z,7144
2018-05-25T07:18:12.521Z,7104
2018-05-25T07:19:13.243Z,6932
2018-05-25T07:20:13.964Z,7276
2018-05-25T07:21:14.686Z,7576
2018-05-25T07:22:15.419Z,7692
2018-05-25T07:23:16.140Z,7684
2018-05-25T07:24:16.873Z,7932
2018-05-25T07:25:17.594Z,8104
2018-05-25T07:26:18.326Z,8684
2018-05-25T07:27:19.049Z,8608
2018-05-25T07:28:19.773Z,9156
2018-05-25T07:29:20.507Z,9792
2018-05-25T07:30:21.241Z,10304
2018-05-25T07:31:21.969Z,11272
2018-05-25T07:32:22.695Z,13496
2018-05-25T07:33:23.438Z,23296
2018-05-25T07:34:24.154Z,31456
2018-05-25T07:35:24.879Z,42048
2018-05-25T07:36:25.606Z,49632
2018-05-25T07:37:26.333Z,28320
2018-05-25T07:38:27.059Z,40064
2018-05-25T07:39:27.788Z,52704
2018-05-25T07:40:28.518Z,27616
2018-05-25T07:41:29.260Z,55296
2018-05-25T07:42:29.988Z,53728
2018-05-25T07:43:30.719Z,56608
2018-05-25T07:44:31.463Z,56128
2018-05-25T07:45:32.205Z,54624
2018-05-25T07:46:32.943Z,37952
2018-05-25T07:47:33.670Z,39328
2018-05-25T07:48:34.413Z,46208
2018-05-25T07:49:35.147Z,16492
2018-05-25T07:50:35.879Z,38272
2018-05-25T07:51:36.611Z,33056
2018-05-25T07:52:37.339Z,13780
2018-05-25T07:53:38.067Z,14076
2018-05-25T07:54:38.799Z,35584
2018-05-25T07:55:39.530Z,28064
2018-05-25T07:56:40.257Z,28736
2018-05-25T07:57:40.991Z,49728
2018-05-25T07:58:41.723Z,53344
2018-05-25T07:59:42.467Z,57024
2018-05-25T08:00:43.199Z,49344
2018-05-25T08:01:43.933Z,56800
2018-05-25T08:02:44.668Z,59904
2018-05-25T08:03:45.408Z,61024
2018-05-25T08:04:46.138Z,66624
2018-05-25T08:05:46.873Z,61856
2018-05-25T08:06:47.607Z,62112
2018-05-25T08:07:48.336Z,64832
2018-05-25T08:08:49.068Z,62304
2018-05-25T08:09:49.852Z,59712
2018-05-25T08:10:50.541Z,62016
2018-05-25T08:11:51.267Z,59744
2018-05-25T08:12:51.999Z,42592
2018-05-25T08:13:52.731Z,22784
2018-05-25T08:14:53.461Z,18400
2018-05-25T08:15:54.227Z,18144
2018-05-25T08:16:54.940Z,16400
2018-05-25T08:17:55.680Z,15860
2018-05-25T08:18:56.420Z,15296
2018-05-25T08:19:57.151Z,14692
2018-05-25T08:20:57.885Z,14612
2018-05-25T08:21:58.630Z,14316
2018-05-25T08:22:59.348Z,14436
2018-05-25T08:24:00.089Z,14608
2018-05-25T08:25:00.822Z,14496
2018-05-25T08:26:01.603Z,14704
2018-05-25T08:27:02.305Z,14896
2018-05-25T08:28:03.037Z,14996
2018-05-25T08:29:03.770Z,15228
2018-05-25T08:30:04.509Z,15624
2018-05-25T08:31:05.243Z,16004
2018-05-25T08:32:05.984Z,16288
2018-05-25T08:33:06.716Z,17388
2018-05-25T08:34:07.463Z,19616
2018-05-25T08:35:08.198Z,25472
2018-05-25T08:36:08.930Z,48768
2018-05-25T08:37:09.665Z,67616
2018-05-25T08:38:10.398Z,69696
2018-05-25T08:39:11.136Z,72416
2018-05-25T08:40:11.884Z,71200
2018-05-25T08:41:12.612Z,71840
2018-05-25T08:42:13.346Z,79168
2018-05-25T08:43:14.149Z,77408
2018-05-25T08:44:14.826Z,82464
2018-05-25T08:45:15.564Z,82400
2018-05-25T08:46:16.296Z,84000
2018-05-25T08:47:17.030Z,88320
2018-05-25T08:48:17.764Z,85408
2018-05-25T08:49:18.502Z,81952
2018-05-25T08:50:19.236Z,82944
2018-05-25T08:51:19.975Z,78272
2018-05-25T08:52:20.718Z,54176
2018-05-25T08:53:21.552Z,64448
2018-05-25T08:54:22.200Z,75904
2018-05-25T08:55:22.938Z,82432
2018-05-25T08:56:23.673Z,80256
2018-05-25T08:57:24.420Z,81632
2018-05-25T08:58:25.157Z,86208
2018-05-25T08:59:25.892Z,80704
2018-05-25T09:00:26.632Z,77088
2018-05-25T09:01:27.367Z,87168
2018-05-25T09:02:28.102Z,83072
2018-05-25T09:03:28.849Z,86848
2018-05-25T09:04:29.592Z,78944
2018-05-25T09:05:30.325Z,76832
2018-05-25T09:06:31.061Z,87136
2018-05-25T09:07:31.801Z,83712
2018-05-25T09:08:32.550Z,81056
2018-05-25T09:09:33.283Z,81760
2018-05-25T09:10:34.021Z,83648
2018-05-25T09:11:34.769Z,85216
2018-05-25T09:12:35.509Z,76992
2018-05-25T09:13:36.258Z,81824
2018-05-25T09:14:36.998Z,85536
2018-05-25T09:15:37.738Z,84544
2018-05-25T09:16:38.479Z,85984
2018-05-25T09:17:39.218Z,81824
2018-05-25T09:18:39.963Z,86624
2018-05-25T09:19:40.711Z,64640
2018-05-25T09:20:41.469Z,56192
2018-05-25T09:21:42.243Z,91712
2018-05-25T09:22:42.981Z,84608
2018-05-25T09:23:43.725Z,78496
2018-05-25T09:24:44.469Z,22048
2018-05-25T09:25:45.211Z,89504
2018-05-25T09:26:45.956Z,92768
2018-05-25T09:27:46.704Z,94304
2018-05-25T09:28:47.449Z,88032
2018-05-25T09:29:48.202Z,90016
2018-05-25T09:30:48.980Z,93600
2018-05-25T09:31:49.696Z,96672
2018-05-25T09:32:50.454Z,81376
2018-05-25T09:33:51.210Z,86688
2018-05-25T09:34:51.954Z,95712
2018-05-25T09:35:52.703Z,88640
2018-05-25T09:36:53.446Z,89216
2018-05-25T09:37:54.189Z,92192
2018-05-25T09:38:54.938Z,93056
2018-05-25T09:39:55.679Z,89120
2018-05-25T09:40:56.422Z,91392
2018-05-25T09:41:57.166Z,94112
2018-05-25T09:42:57.909Z,96032
2018-05-25T09:43:58.651Z,91456
2018-05-25T09:44:59.393Z,91520
2018-05-25T09:46:00.138Z,90336
2018-05-25T09:47:00.888Z,94912
2018-05-25T09:48:01.629Z,87392
2018-05-25T09:49:02.371Z,88928
2018-05-25T09:50:03.117Z,86272
2018-05-25T09:51:03.852Z,93760
2018-05-25T09:52:04.595Z,92832
2018-05-25T09:53:05.339Z,92064
2018-05-25T09:54:06.098Z,91968
2018-05-25T09:55:06.832Z,93824
2018-05-25T09:56:07.602Z,91200
2018-05-25T09:57:08.334Z,88832
2018-05-25T09:58:09.089Z,96736
2018-05-25T09:59:09.842Z,95072
2018-05-25T10:00:10.585Z,94688
2018-05-25T10:01:11.329Z,96704
2018-05-25T10:02:12.073Z,93216
2018-05-25T10:03:12.821Z,95456
2018-05-25T10:04:13.570Z,96416
2018-05-25T10:05:14.307Z,97024
2018-05-25T10:06:15.047Z,94368
2018-05-25T10:07:15.792Z,95424
2018-05-25T10:08:16.532Z,87552
2018-05-25T10:09:17.287Z,84960
2018-05-25T10:10:18.025Z,80736
2018-05-25T10:11:18.768Z,85184
2018-05-25T10:12:19.506Z,73120
2018-05-25T10:13:20.244Z,75648
2018-05-25T10:14:20.990Z,88032
2018-05-25T10:15:21.741Z,75712
2018-05-25T10:16:22.491Z,78048
2018-05-25T10:17:23.249Z,83072
2018-05-25T10:18:23.994Z,76448
2018-05-25T10:19:24.748Z,69088
2018-05-25T10:20:25.498Z,87776
2018-05-25T10:21:26.254Z,87552
2018-05-25T10:22:26.995Z,86240
2018-05-25T10:23:27.740Z,44704
2018-05-25T10:24:28.483Z,32160
2018-05-25T10:25:29.226Z,26528
2018-05-25T10:26:29.981Z,22240
2018-05-25T10:27:30.720Z,20288
2018-05-25T10:28:31.463Z,23264
2018-05-25T10:29:32.203Z,63008
2018-05-25T10:30:32.942Z,48128
2018-05-25T10:31:33.689Z,56320
2018-05-25T10:32:34.427Z,31808
2018-05-25T10:33:35.173Z,44096
2018-05-25T10:34:35.913Z,74112
2018-05-25T10:35:36.658Z,37376
2018-05-25T10:36:37.402Z,40512
2018-05-25T10:37:38.146Z,28640
2018-05-25T10:38:38.901Z,35584
2018-05-25T10:39:39.641Z,33472
2018-05-25T10:40:40.383Z,61088
2018-05-25T10:41:41.130Z,94368
2018-05-25T10:42:41.872Z,97440
2018-05-25T10:43:42.616Z,89472
2018-05-25T10:44:43.355Z,85824
2018-05-25T10:45:44.170Z,80576
2018-05-25T10:46:44.851Z,95296
2018-05-25T10:47:45.589Z,98368
2018-05-25T10:48:46.331Z,96288
2018-05-25T10:49:47.072Z,99168
2018-05-25T10:50:47.814Z,95296
2018-05-25T10:51:48.559Z,76192
2018-05-25T10:52:49.294Z,95744
2018-05-25T10:53:50.045Z,96896
2018-05-25T10:54:50.787Z,99776
2018-05-25T10:55:51.535Z,102176
2018-05-25T10:56:52.270Z,97984
2018-05-25T10:57:53.015Z,95904
2018-05-25T10:58:53.755Z,98400
2018-05-25T10:59:54.489Z,24736
2018-05-25T11:00:55.233Z,13368
2018-05-25T11:01:55.990Z,13296
2018-05-25T11:02:56.725Z,75264
2018-05-25T11:03:57.463Z,95488
2018-05-25T11:04:58.206Z,102144
2018-05-25T11:05:58.948Z,104096
2018-05-25T11:06:59.690Z,73312
2018-05-25T11:08:00.427Z,18112
2018-05-25T11:09:01.165Z,17024
2018-05-25T11:10:01.919Z,27392
2018-05-25T11:11:02.647Z,27808
2018-05-25T11:12:03.388Z,97888
2018-05-25T11:13:04.123Z,27872
2018-05-25T11:14:04.861Z,41632
2018-05-25T11:15:05.600Z,30752
2018-05-25T11:16:06.342Z,18048
2018-05-25T11:17:07.085Z,73216
2018-05-25T11:18:07.831Z,41248
2018-05-25T11:19:08.571Z,92320
2018-05-25T11:20:09.308Z,90944
2018-05-25T11:21:10.045Z,20736
2018-05-25T11:22:10.788Z,22144
2018-05-25T11:23:11.530Z,33376
2018-05-25T11:24:12.278Z,32864
2018-05-25T11:25:13.013Z,21280
2018-05-25T11:26:13.754Z,18432
2018-05-25T11:27:14.505Z,20480
2018-05-25T11:28:15.258Z,15864
2018-05-25T11:29:15.994Z,13108
2018-05-25T11:30:16.733Z,11516
2018-05-25T11:31:17.468Z,12376
2018-05-25T11:32:18.202Z,16320
2018-05-25T11:33:18.942Z,96672
2018-05-25T11:34:19.680Z,94688
2018-05-25T11:35:20.410Z,91584
2018-05-25T11:36:21.145Z,90400
2018-05-25T11:37:21.882Z,91104
2018-05-25T11:38:22.624Z,92992
2018-05-25T11:39:23.379Z,90976
2018-05-25T11:40:24.127Z,89504
2018-05-25T11:41:24.877Z,44192
2018-05-25T11:42:25.617Z,95264
2018-05-25T11:43:26.360Z,65280
2018-05-25T11:44:27.099Z,70080
2018-05-25T11:45:27.840Z,20544
2018-05-25T11:46:28.584Z,15252
2018-05-25T11:47:29.332Z,13900
2018-05-25T11:48:30.080Z,11900
2018-05-25T11:49:30.815Z,12060
2018-05-25T11:50:31.547Z,12552
2018-05-25T11:51:32.289Z,20544
2018-05-25T11:52:33.021Z,91872
2018-05-25T11:53:33.754Z,93408
2018-05-25T11:54:34.485Z,94208
2018-05-25T11:55:35.220Z,89728
2018-05-25T11:56:35.957Z,17280
2018-05-25T11:57:36.694Z,12668
2018-05-25T11:58:37.425Z,9120
2018-05-25T11:59:38.169Z,8800
2018-05-25T12:00:38.898Z,9536
2018-05-25T12:01:39.627Z,11356
2018-05-25T12:02:40.367Z,22080
2018-05-25T12:03:41.099Z,51744
2018-05-25T12:04:41.829Z,71520
2018-05-25T12:05:42.561Z,77504
2018-05-25T12:06:43.293Z,39296
2018-05-25T12:07:44.024Z,86688
2018-05-25T12:08:44.753Z,88512
2018-05-25T12:09:45.487Z,82048
2018-05-25T12:10:46.220Z,87872
2018-05-25T12:11:46.955Z,36288
2018-05-25T12:12:47.693Z,21824
2018-05-25T12:13:48.422Z,21376
2018-05-25T12:14:49.154Z,94624
2018-05-25T12:15:49.887Z,90688
2018-05-25T12:16:50.635Z,86432
2018-05-25T12:17:51.369Z,94720
2018-05-25T12:18:52.105Z,93376
2018-05-25T12:19:52.843Z,86016
2018-05-25T12:20:53.583Z,91456
2018-05-25T12:21:54.320Z,94976
2018-05-25T12:22:55.058Z,89888
2018-05-25T12:23:55.799Z,85952
2018-05-25T12:24:56.538Z,86592
2018-05-25T12:25:57.291Z,83296
2018-05-25T12:26:58.036Z,83840
2018-05-25T12:27:58.790Z,83904
2018-05-25T12:28:59.531Z,82016
2018-05-25T12:30:00.273Z,70528
2018-05-25T12:31:01.016Z,56192
2018-05-25T12:32:01.768Z,72064
2018-05-25T12:33:02.512Z,69408
2018-05-25T12:34:03.254Z,81376
2018-05-25T12:35:04.001Z,90752
2018-05-25T12:36:04.737Z,83040
2018-05-25T12:37:05.477Z,59904
2018-05-25T12:38:06.219Z,79392
2018-05-25T12:39:06.958Z,85184
2018-05-25T12:40:07.701Z,40672
2018-05-25T12:41:08.452Z,58400
2018-05-25T12:42:09.186Z,86400
2018-05-25T12:43:09.922Z,87872
2018-05-25T12:44:10.660Z,36320
2018-05-25T12:45:11.395Z,79936
2018-05-25T12:46:12.136Z,88640
2018-05-25T12:47:12.888Z,43776
2018-05-25T12:48:13.624Z,14348
2018-05-25T12:49:14.362Z,11784
2018-05-25T12:50:15.100Z,14316
2018-05-25T12:51:15.853Z,84064
2018-05-25T12:52:16.589Z,82720
2018-05-25T12:53:17.333Z,76896
2018-05-25T12:54:18.072Z,74720
2018-05-25T12:55:18.817Z,78496
2018-05-25T12:56:19.555Z,79840
2018-05-25T12:57:20.308Z,79968
2018-05-25T12:58:21.048Z,77024
2018-05-25T12:59:21.787Z,82720
2018-05-25T13:00:22.533Z,83680
2018-05-25T13:01:23.280Z,43232
2018-05-25T13:02:24.021Z,11508
2018-05-25T13:03:24.759Z,8208
2018-05-25T13:04:25.495Z,7528
2018-05-25T13:05:26.232Z,7536
2018-05-25T13:06:26.979Z,7644
2018-05-25T13:07:27.718Z,7732
2018-05-25T13:08:28.447Z,7512
2018-05-25T13:09:29.187Z,7336
2018-05-25T13:10:29.920Z,7916
2018-05-25T13:11:30.643Z,9232
2018-05-25T13:12:31.383Z,10840
2018-05-25T13:13:32.115Z,12648
2018-05-25T13:14:32.854Z,14972
2018-05-25T13:15:33.583Z,46336
2018-05-25T13:16:34.312Z,50912
2018-05-25T13:17:35.037Z,21952
2018-05-25T13:18:35.768Z,47168
2018-05-25T13:19:36.508Z,49696
2018-05-25T13:20:37.248Z,78432
2018-05-25T13:21:38.015Z,75712
2018-05-25T13:22:38.703Z,74400
2018-05-25T13:23:39.433Z,74208
2018-05-25T13:24:40.175Z,69696
2018-05-25T13:25:40.903Z,68160
2018-05-25T13:26:41.643Z,67904
2018-05-25T13:27:42.373Z,66976
2018-05-25T13:28:43.102Z,68192
2018-05-25T13:29:43.831Z,65120
2018-05-25T13:30:44.559Z,63104
2018-05-25T13:31:45.290Z,62912
2018-05-25T13:32:46.020Z,60032
2018-05-25T13:33:46.758Z,49152
2018-05-25T13:34:47.487Z,29696
2018-05-25T13:35:48.221Z,21024
2018-05-25T13:36:48.955Z,13012
2018-05-25T13:37:49.685Z,17072